Terminal Aerodrome Forecast
Issued by NWS Rapid City, SD

Home | Current Version | Previous Version | Graphics & Text | Print | Product List | Glossary On
Versions: 1 2 3 4 5 6 7 8 9 10 11 12 13 14 15 16 17 18 19 20 21 22 23
000
FTUS43 KUNR 032320
TAFRAP
TAF
KRAP 032320Z 0400/0424 05014KT P6SM SCT070 BKN150
     FM040200 07007KT P6SM BKN150
     FM041200 15014KT P6SM BKN050
      TEMPO 0412/0416 -SHRA=

USA.gov is the U.S. government's official web portal to all federal, state and local government web resources and services.